sensor_id;sensor_type;location;lat;lon;timestamp;P1;durP1;ratioP1;P2;durP2;ratioP2
2408;SDS011;8463;48.094;7.970;2024-02-14T00:02:08;5.17;;;2.60;;
2408;SDS011;8463;48.094;7.970;2024-02-14T00:04:34;2.10;;;1.90;;
2408;SDS011;8463;48.094;7.970;2024-02-14T00:07:00;3.13;;;2.67;;
2408;SDS011;8463;48.094;7.970;2024-02-14T00:09:25;4.53;;;2.83;;
2408;SDS011;8463;48.094;7.970;2024-02-14T00:11:51;2.57;;;2.37;;
2408;SDS011;8463;48.094;7.970;2024-02-14T00:14:16;3.63;;;2.87;;
2408;SDS011;8463;48.094;7.970;2024-02-14T00:16:45;2.17;;;1.97;;
2408;SDS011;8463;48.094;7.970;2024-02-14T00:19:11;4.23;;;2.33;;
2408;SDS011;8463;48.094;7.970;2024-02-14T00:21:41;1.80;;;1.70;;
2408;SDS011;8463;48.094;7.970;2024-02-14T00:24:07;2.37;;;1.87;;
2408;SDS011;8463;48.094;7.970;2024-02-14T00:26:33;2.47;;;2.27;;
2408;SDS011;8463;48.094;7.970;2024-02-14T00:28:58;3.40;;;2.20;;
2408;SDS011;8463;48.094;7.970;2024-02-14T00:31:24;2.70;;;2.10;;
2408;SDS011;8463;48.094;7.970;2024-02-14T00:33:50;2.00;;;1.77;;
2408;SDS011;8463;48.094;7.970;2024-02-14T00:36:16;3.07;;;2.13;;
2408;SDS011;8463;48.094;7.970;2024-02-14T00:38:41;2.13;;;1.57;;
2408;SDS011;8463;48.094;7.970;2024-02-14T00:41:07;1.83;;;1.73;;
2408;SDS011;8463;48.094;7.970;2024-02-14T00:43:32;1.70;;;1.60;;
2408;SDS011;8463;48.094;7.970;2024-02-14T00:45:58;1.60;;;1.50;;
2408;SDS011;8463;48.094;7.970;2024-02-14T00:48:24;2.47;;;1.90;;
2408;SDS011;8463;48.094;7.970;2024-02-14T00:50:49;2.30;;;1.83;;
2408;SDS011;8463;48.094;7.970;2024-02-14T00:53:17;3.50;;;1.97;;
2408;SDS011;8463;48.094;7.970;2024-02-14T00:55:43;2.60;;;2.37;;
2408;SDS011;8463;48.094;7.970;2024-02-14T00:58:11;4.10;;;2.33;;
2408;SDS011;8463;48.094;7.970;2024-02-14T01:00:37;4.87;;;2.13;;
2408;SDS011;8463;48.094;7.970;2024-02-14T01:03:03;3.30;;;1.50;;
2408;SDS011;8463;48.094;7.970;2024-02-14T01:05:28;3.10;;;2.20;;
2408;SDS011;8463;48.094;7.970;2024-02-14T01:07:54;3.17;;;1.90;;
2408;SDS011;8463;48.094;7.970;2024-02-14T01:10:20;2.40;;;2.20;;
2408;SDS011;8463;48.094;7.970;2024-02-14T01:12:48;2.57;;;2.37;;
2408;SDS011;8463;48.094;7.970;2024-02-14T01:15:14;2.30;;;2.10;;
2408;SDS011;8463;48.094;7.970;2024-02-14T01:17:40;4.23;;;2.27;;
2408;SDS011;8463;48.094;7.970;2024-02-14T01:20:08;3.20;;;2.33;;
2408;SDS011;8463;48.094;7.970;2024-02-14T01:22:34;1.63;;;1.37;;
2408;SDS011;8463;48.094;7.970;2024-02-14T01:25:01;3.00;;;1.77;;
2408;SDS011;8463;48.094;7.970;2024-02-14T01:27:27;2.67;;;1.67;;
2408;SDS011;8463;48.094;7.970;2024-02-14T01:29:54;1.50;;;1.40;;
2408;SDS011;8463;48.094;7.970;2024-02-14T01:32:20;2.23;;;1.30;;
2408;SDS011;8463;48.094;7.970;2024-02-14T01:34:48;6.13;;;3.80;;
2408;SDS011;8463;48.094;7.970;2024-02-14T01:37:13;1.43;;;1.33;;
2408;SDS011;8463;48.094;7.970;2024-02-14T01:39:39;2.70;;;1.80;;
2408;SDS011;8463;48.094;7.970;2024-02-14T01:42:05;2.20;;;1.97;;
2408;SDS011;8463;48.094;7.970;2024-02-14T01:44:32;2.20;;;2.00;;
2408;SDS011;8463;48.094;7.970;2024-02-14T01:46:59;2.00;;;1.70;;
2408;SDS011;8463;48.094;7.970;2024-02-14T01:49:25;3.03;;;2.07;;
2408;SDS011;8463;48.094;7.970;2024-02-14T01:51:53;2.53;;;2.10;;
2408;SDS011;8463;48.094;7.970;2024-02-14T01:54:25;1.87;;;1.70;;
2408;SDS011;8463;48.094;7.970;2024-02-14T01:56:54;3.23;;;2.20;;
2408;SDS011;8463;48.094;7.970;2024-02-14T01:59:23;2.37;;;1.80;;
2408;SDS011;8463;48.094;7.970;2024-02-14T02:01:49;2.63;;;1.70;;
2408;SDS011;8463;48.094;7.970;2024-02-14T02:04:16;3.17;;;1.80;;
2408;SDS011;8463;48.094;7.970;2024-02-14T02:06:43;5.43;;;1.53;;
2408;SDS011;8463;48.094;7.970;2024-02-14T02:09:09;4.00;;;3.23;;
2408;SDS011;8463;48.094;7.970;2024-02-14T02:11:50;5.90;;;1.70;;
2408;SDS011;8463;48.094;7.970;2024-02-14T02:14:18;3.43;;;1.47;;
2408;SDS011;8463;48.094;7.970;2024-02-14T02:16:45;2.90;;;1.90;;
2408;SDS011;8463;48.094;7.970;2024-02-14T02:19:11;1.60;;;1.40;;
2408;SDS011;8463;48.094;7.970;2024-02-14T02:21:37;2.50;;;1.73;;
2408;SDS011;8463;48.094;7.970;2024-02-14T02:24:03;3.07;;;1.87;;
2408;SDS011;8463;48.094;7.970;2024-02-14T02:26:29;3.77;;;1.70;;
2408;SDS011;8463;48.094;7.970;2024-02-14T02:28:55;3.60;;;1.63;;
2408;SDS011;8463;48.094;7.970;2024-02-14T02:31:21;3.13;;;1.97;;
2408;SDS011;8463;48.094;7.970;2024-02-14T02:33:47;2.23;;;2.03;;
2408;SDS011;8463;48.094;7.970;2024-02-14T02:36:12;1.70;;;1.60;;
2408;SDS011;8463;48.094;7.970;2024-02-14T02:38:38;2.90;;;1.83;;
2408;SDS011;8463;48.094;7.970;2024-02-14T02:41:04;1.53;;;1.43;;
2408;SDS011;8463;48.094;7.970;2024-02-14T02:43:33;3.73;;;2.10;;
2408;SDS011;8463;48.094;7.970;2024-02-14T02:45:59;2.97;;;2.13;;
2408;SDS011;8463;48.094;7.970;2024-02-14T02:48:25;4.87;;;2.27;;
2408;SDS011;8463;48.094;7.970;2024-02-14T02:50:51;3.83;;;2.00;;
2408;SDS011;8463;48.094;7.970;2024-02-14T02:53:18;3.80;;;2.10;;
2408;SDS011;8463;48.094;7.970;2024-02-14T02:55:46;2.13;;;1.87;;
2408;SDS011;8463;48.094;7.970;2024-02-14T02:58:12;3.90;;;2.13;;
2408;SDS011;8463;48.094;7.970;2024-02-14T03:00:38;4.70;;;1.80;;
2408;SDS011;8463;48.094;7.970;2024-02-14T03:03:04;1.73;;;1.53;;
2408;SDS011;8463;48.094;7.970;2024-02-14T03:05:33;2.20;;;1.43;;
2408;SDS011;8463;48.094;7.970;2024-02-14T03:07:59;3.43;;;1.93;;
2408;SDS011;8463;48.094;7.970;2024-02-14T03:10:27;2.00;;;1.80;;
2408;SDS011;8463;48.094;7.970;2024-02-14T03:12:54;3.03;;;1.90;;
2408;SDS011;8463;48.094;7.970;2024-02-14T03:15:20;3.77;;;1.70;;
2408;SDS011;8463;48.094;7.970;2024-02-14T03:17:46;2.20;;;1.33;;
2408;SDS011;8463;48.094;7.970;2024-02-14T03:20:12;3.43;;;1.53;;
2408;SDS011;8463;48.094;7.970;2024-02-14T03:22:39;2.63;;;1.87;;
2408;SDS011;8463;48.094;7.970;2024-02-14T03:25:12;2.30;;;2.10;;
2408;SDS011;8463;48.094;7.970;2024-02-14T03:27:45;2.60;;;2.40;;
2408;SDS011;8463;48.094;7.970;2024-02-14T03:30:14;1.83;;;1.60;;
2408;SDS011;8463;48.094;7.970;2024-02-14T03:32:41;2.40;;;1.60;;
2408;SDS011;8463;48.094;7.970;2024-02-14T03:35:07;2.57;;;2.07;;
2408;SDS011;8463;48.094;7.970;2024-02-14T03:37:35;1.53;;;1.30;;
2408;SDS011;8463;48.094;7.970;2024-02-14T03:40:02;1.77;;;1.40;;
2408;SDS011;8463;48.094;7.970;2024-02-14T03:42:32;2.70;;;1.57;;
2408;SDS011;8463;48.094;7.970;2024-02-14T03:44:59;2.40;;;1.80;;
2408;SDS011;8463;48.094;7.970;2024-02-14T03:47:30;2.57;;;1.70;;
2408;SDS011;8463;48.094;7.970;2024-02-14T03:49:57;5.33;;;2.10;;
2408;SDS011;8463;48.094;7.970;2024-02-14T03:52:23;1.87;;;1.60;;
2408;SDS011;8463;48.094;7.970;2024-02-14T03:54:49;3.67;;;2.40;;
2408;SDS011;8463;48.094;7.970;2024-02-14T03:57:15;4.97;;;2.03;;
2408;SDS011;8463;48.094;7.970;2024-02-14T03:59:43;3.40;;;1.73;;
2408;SDS011;8463;48.094;7.970;2024-02-14T04:02:11;1.57;;;1.30;;
2408;SDS011;8463;48.094;7.970;2024-02-14T04:04:37;1.93;;;1.50;;
2408;SDS011;8463;48.094;7.970;2024-02-14T04:07:04;2.57;;;2.00;;
2408;SDS011;8463;48.094;7.970;2024-02-14T04:09:32;2.33;;;1.53;;
2408;SDS011;8463;48.094;7.970;2024-02-14T04:11:58;3.60;;;1.80;;
2408;SDS011;8463;48.094;7.970;2024-02-14T04:14:23;1.60;;;1.50;;
2408;SDS011;8463;48.094;7.970;2024-02-14T04:16:49;2.10;;;1.40;;
2408;SDS011;8463;48.094;7.970;2024-02-14T04:19:15;0.83;;;0.80;;
2408;SDS011;8463;48.094;7.970;2024-02-14T04:21:42;1.43;;;0.90;;
2408;SDS011;8463;48.094;7.970;2024-02-14T04:24:08;1.53;;;1.07;;
2408;SDS011;8463;48.094;7.970;2024-02-14T04:26:33;1.17;;;1.00;;
2408;SDS011;8463;48.094;7.970;2024-02-14T04:28:59;4.00;;;1.37;;
2408;SDS011;8463;48.094;7.970;2024-02-14T04:31:25;2.80;;;1.07;;
2408;SDS011;8463;48.094;7.970;2024-02-14T04:33:51;1.63;;;0.80;;
2408;SDS011;8463;48.094;7.970;2024-02-14T04:36:18;1.13;;;0.87;;
2408;SDS011;8463;48.094;7.970;2024-02-14T04:38:55;1.20;;;0.93;;
2408;SDS011;8463;48.094;7.970;2024-02-14T04:41:22;2.47;;;1.17;;
2408;SDS011;8463;48.094;7.970;2024-02-14T04:43:48;0.93;;;0.70;;
2408;SDS011;8463;48.094;7.970;2024-02-14T04:46:14;2.33;;;0.97;;
2408;SDS011;8463;48.094;7.970;2024-02-14T04:48:39;3.10;;;1.10;;
2408;SDS011;8463;48.094;7.970;2024-02-14T04:51:05;0.90;;;0.60;;
2408;SDS011;8463;48.094;7.970;2024-02-14T04:53:31;1.63;;;1.00;;
2408;SDS011;8463;48.094;7.970;2024-02-14T04:55:56;2.33;;;0.90;;
2408;SDS011;8463;48.094;7.970;2024-02-14T04:58:22;1.50;;;0.87;;
2408;SDS011;8463;48.094;7.970;2024-02-14T05:00:48;7.30;;;1.00;;
2408;SDS011;8463;48.094;7.970;2024-02-14T05:03:14;2.70;;;1.10;;
2408;SDS011;8463;48.094;7.970;2024-02-14T05:05:40;1.30;;;0.70;;
2408;SDS011;8463;48.094;7.970;2024-02-14T05:08:07;1.30;;;1.20;;
2408;SDS011;8463;48.094;7.970;2024-02-14T05:10:32;0.80;;;0.73;;
2408;SDS011;8463;48.094;7.970;2024-02-14T05:12:58;2.20;;;0.80;;
2408;SDS011;8463;48.094;7.970;2024-02-14T05:15:24;1.63;;;1.00;;
2408;SDS011;8463;48.094;7.970;2024-02-14T05:17:49;1.23;;;1.10;;
2408;SDS011;8463;48.094;7.970;2024-02-14T05:20:16;1.27;;;0.60;;
2408;SDS011;8463;48.094;7.970;2024-02-14T05:22:42;1.20;;;0.80;;
2408;SDS011;8463;48.094;7.970;2024-02-14T05:25:08;3.73;;;0.83;;
2408;SDS011;8463;48.094;7.970;2024-02-14T05:27:34;2.40;;;1.13;;
2408;SDS011;8463;48.094;7.970;2024-02-14T05:30:00;2.80;;;0.97;;
2408;SDS011;8463;48.094;7.970;2024-02-14T05:32:30;2.77;;;1.20;;
2408;SDS011;8463;48.094;7.970;2024-02-14T05:34:59;3.80;;;1.60;;
2408;SDS011;8463;48.094;7.970;2024-02-14T05:37:25;3.73;;;1.30;;
2408;SDS011;8463;48.094;7.970;2024-02-14T05:39:54;2.20;;;1.30;;
2408;SDS011;8463;48.094;7.970;2024-02-14T05:42:20;1.10;;;0.80;;
2408;SDS011;8463;48.094;7.970;2024-02-14T05:44:46;1.80;;;1.37;;
2408;SDS011;8463;48.094;7.970;2024-02-14T05:47:12;1.33;;;1.17;;
2408;SDS011;8463;48.094;7.970;2024-02-14T05:49:38;1.93;;;1.10;;
2408;SDS011;8463;48.094;7.970;2024-02-14T05:52:05;2.40;;;1.40;;
2408;SDS011;8463;48.094;7.970;2024-02-14T05:54:31;3.00;;;1.20;;
2408;SDS011;8463;48.094;7.970;2024-02-14T05:56:56;2.90;;;2.33;;
2408;SDS011;8463;48.094;7.970;2024-02-14T05:59:22;2.60;;;1.50;;
2408;SDS011;8463;48.094;7.970;2024-02-14T06:01:48;2.63;;;1.60;;
2408;SDS011;8463;48.094;7.970;2024-02-14T06:04:14;1.90;;;1.63;;
2408;SDS011;8463;48.094;7.970;2024-02-14T06:06:42;1.20;;;1.10;;
2408;SDS011;8463;48.094;7.970;2024-02-14T06:09:08;6.17;;;1.50;;
2408;SDS011;8463;48.094;7.970;2024-02-14T06:11:36;3.00;;;1.00;;
2408;SDS011;8463;48.094;7.970;2024-02-14T06:14:06;1.37;;;1.23;;
2408;SDS011;8463;48.094;7.970;2024-02-14T06:16:32;4.20;;;0.83;;
2408;SDS011;8463;48.094;7.970;2024-02-14T06:18:58;1.73;;;1.17;;
2408;SDS011;8463;48.094;7.970;2024-02-14T06:21:24;2.57;;;1.10;;
2408;SDS011;8463;48.094;7.970;2024-02-14T06:23:50;1.93;;;1.67;;
2408;SDS011;8463;48.094;7.970;2024-02-14T06:26:16;1.63;;;1.50;;
2408;SDS011;8463;48.094;7.970;2024-02-14T06:28:45;2.07;;;1.50;;
2408;SDS011;8463;48.094;7.970;2024-02-14T06:31:11;1.70;;;0.97;;
2408;SDS011;8463;48.094;7.970;2024-02-14T06:33:36;2.20;;;1.17;;
2408;SDS011;8463;48.094;7.970;2024-02-14T06:36:02;1.10;;;0.73;;
2408;SDS011;8463;48.094;7.970;2024-02-14T06:38:28;2.60;;;1.20;;
2408;SDS011;8463;48.094;7.970;2024-02-14T06:40:56;2.40;;;1.30;;
2408;SDS011;8463;48.094;7.970;2024-02-14T06:43:21;1.80;;;1.20;;
2408;SDS011;8463;48.094;7.970;2024-02-14T06:45:47;2.23;;;1.17;;
2408;SDS011;8463;48.094;7.970;2024-02-14T06:48:13;1.80;;;1.00;;
2408;SDS011;8463;48.094;7.970;2024-02-14T06:50:38;3.00;;;0.90;;
2408;SDS011;8463;48.094;7.970;2024-02-14T06:53:04;2.10;;;0.93;;
2408;SDS011;8463;48.094;7.970;2024-02-14T06:55:29;2.10;;;1.00;;
2408;SDS011;8463;48.094;7.970;2024-02-14T06:57:57;2.57;;;1.13;;
2408;SDS011;8463;48.094;7.970;2024-02-14T07:00:26;2.20;;;1.20;;
2408;SDS011;8463;48.094;7.970;2024-02-14T07:02:53;2.10;;;1.50;;
2408;SDS011;8463;48.094;7.970;2024-02-14T07:05:19;2.33;;;1.50;;
2408;SDS011;8463;48.094;7.970;2024-02-14T07:07:44;2.80;;;1.70;;
2408;SDS011;8463;48.094;7.970;2024-02-14T07:10:10;2.33;;;1.20;;
2408;SDS011;8463;48.094;7.970;2024-02-14T07:12:37;2.50;;;1.30;;
2408;SDS011;8463;48.094;7.970;2024-02-14T07:15:03;2.33;;;1.60;;
2408;SDS011;8463;48.094;7.970;2024-02-14T07:17:30;2.37;;;1.40;;
2408;SDS011;8463;48.094;7.970;2024-02-14T07:19:56;2.13;;;1.53;;
2408;SDS011;8463;48.094;7.970;2024-02-14T07:22:21;1.67;;;1.23;;
2408;SDS011;8463;48.094;7.970;2024-02-14T07:24:47;1.50;;;1.40;;
2408;SDS011;8463;48.094;7.970;2024-02-14T07:27:13;2.20;;;1.03;;
2408;SDS011;8463;48.094;7.970;2024-02-14T07:29:40;2.03;;;1.70;;
2408;SDS011;8463;48.094;7.970;2024-02-14T07:32:05;1.73;;;1.63;;
2408;SDS011;8463;48.094;7.970;2024-02-14T07:34:31;2.93;;;2.00;;
2408;SDS011;8463;48.094;7.970;2024-02-14T07:36:57;1.47;;;1.37;;
2408;SDS011;8463;48.094;7.970;2024-02-14T07:39:23;1.33;;;1.13;;
2408;SDS011;8463;48.094;7.970;2024-02-14T07:41:48;4.83;;;1.87;;
2408;SDS011;8463;48.094;7.970;2024-02-14T07:44:14;4.10;;;1.30;;
2408;SDS011;8463;48.094;7.970;2024-02-14T07:46:40;1.30;;;1.07;;
2408;SDS011;8463;48.094;7.970;2024-02-14T07:49:05;0.90;;;0.80;;
2408;SDS011;8463;48.094;7.970;2024-02-14T07:51:31;2.60;;;1.60;;
2408;SDS011;8463;48.094;7.970;2024-02-14T07:54:03;1.80;;;1.10;;
2408;SDS011;8463;48.094;7.970;2024-02-14T07:56:29;1.70;;;1.60;;
2408;SDS011;8463;48.094;7.970;2024-02-14T07:58:57;3.77;;;1.60;;
2408;SDS011;8463;48.094;7.970;2024-02-14T08:01:23;8.03;;;1.23;;
2408;SDS011;8463;48.094;7.970;2024-02-14T08:03:50;2.33;;;1.43;;
2408;SDS011;8463;48.094;7.970;2024-02-14T08:06:15;2.03;;;1.10;;
2408;SDS011;8463;48.094;7.970;2024-02-14T08:08:41;2.63;;;1.17;;
2408;SDS011;8463;48.094;7.970;2024-02-14T08:11:07;2.20;;;1.77;;
2408;SDS011;8463;48.094;7.970;2024-02-14T08:13:32;1.50;;;1.40;;
2408;SDS011;8463;48.094;7.970;2024-02-14T08:15:59;1.20;;;1.07;;
2408;SDS011;8463;48.094;7.970;2024-02-14T08:18:25;2.03;;;1.60;;
2408;SDS011;8463;48.094;7.970;2024-02-14T08:20:52;2.33;;;1.30;;
2408;SDS011;8463;48.094;7.970;2024-02-14T08:23:18;2.10;;;1.10;;
2408;SDS011;8463;48.094;7.970;2024-02-14T08:25:45;2.00;;;1.70;;
2408;SDS011;8463;48.094;7.970;2024-02-14T08:28:11;2.37;;;1.87;;
2408;SDS011;8463;48.094;7.970;2024-02-14T08:30:37;2.03;;;1.30;;
2408;SDS011;8463;48.094;7.970;2024-02-14T08:33:03;1.47;;;1.00;;
2408;SDS011;8463;48.094;7.970;2024-02-14T08:35:29;2.00;;;1.20;;
2408;SDS011;8463;48.094;7.970;2024-02-14T08:37:54;1.20;;;1.10;;
2408;SDS011;8463;48.094;7.970;2024-02-14T08:40:20;2.60;;;1.43;;
2408;SDS011;8463;48.094;7.970;2024-02-14T08:42:46;3.57;;;2.60;;
2408;SDS011;8463;48.094;7.970;2024-02-14T08:45:12;2.40;;;1.50;;
2408;SDS011;8463;48.094;7.970;2024-02-14T08:47:38;2.57;;;1.47;;
2408;SDS011;8463;48.094;7.970;2024-02-14T08:50:04;2.70;;;2.50;;
2408;SDS011;8463;48.094;7.970;2024-02-14T08:52:30;1.30;;;1.20;;
2408;SDS011;8463;48.094;7.970;2024-02-14T08:54:55;2.73;;;1.23;;
2408;SDS011;8463;48.094;7.970;2024-02-14T08:57:21;2.07;;;1.30;;
2408;SDS011;8463;48.094;7.970;2024-02-14T08:59:48;4.77;;;1.90;;
2408;SDS011;8463;48.094;7.970;2024-02-14T09:02:14;2.87;;;1.77;;
2408;SDS011;8463;48.094;7.970;2024-02-14T09:04:39;1.47;;;1.30;;
2408;SDS011;8463;48.094;7.970;2024-02-14T09:07:09;2.63;;;1.50;;
2408;SDS011;8463;48.094;7.970;2024-02-14T09:09:35;2.20;;;1.67;;
2408;SDS011;8463;48.094;7.970;2024-02-14T09:12:03;2.30;;;1.50;;
2408;SDS011;8463;48.094;7.970;2024-02-14T09:14:29;2.73;;;1.60;;
2408;SDS011;8463;48.094;7.970;2024-02-14T09:16:55;2.47;;;1.50;;
2408;SDS011;8463;48.094;7.970;2024-02-14T09:19:21;2.57;;;1.60;;
2408;SDS011;8463;48.094;7.970;2024-02-14T09:21:47;2.50;;;1.30;;
2408;SDS011;8463;48.094;7.970;2024-02-14T09:24:12;1.37;;;1.20;;
2408;SDS011;8463;48.094;7.970;2024-02-14T09:26:38;3.27;;;1.73;;
2408;SDS011;8463;48.094;7.970;2024-02-14T09:29:04;2.60;;;1.87;;
2408;SDS011;8463;48.094;7.970;2024-02-14T09:31:32;1.90;;;1.37;;
2408;SDS011;8463;48.094;7.970;2024-02-14T09:33:58;1.90;;;1.40;;
2408;SDS011;8463;48.094;7.970;2024-02-14T09:36:24;3.53;;;1.70;;
2408;SDS011;8463;48.094;7.970;2024-02-14T09:38:51;1.90;;;1.60;;
2408;SDS011;8463;48.094;7.970;2024-02-14T09:44:01;2.13;;;1.67;;
2408;SDS011;8463;48.094;7.970;2024-02-14T09:46:28;2.13;;;1.63;;
2408;SDS011;8463;48.094;7.970;2024-02-14T09:48:58;3.33;;;1.47;;
2408;SDS011;8463;48.094;7.970;2024-02-14T09:51:26;2.63;;;1.23;;
2408;SDS011;8463;48.094;7.970;2024-02-14T09:53:54;2.07;;;1.43;;
2408;SDS011;8463;48.094;7.970;2024-02-14T09:56:21;1.80;;;1.50;;
2408;SDS011;8463;48.094;7.970;2024-02-14T09:58:49;2.10;;;1.43;;
2408;SDS011;8463;48.094;7.970;2024-02-14T10:01:21;2.83;;;1.50;;
2408;SDS011;8463;48.094;7.970;2024-02-14T10:03:50;2.70;;;2.20;;
2408;SDS011;8463;48.094;7.970;2024-02-14T10:06:17;4.63;;;1.70;;
2408;SDS011;8463;48.094;7.970;2024-02-14T10:08:45;3.00;;;2.00;;
2408;SDS011;8463;48.094;7.970;2024-02-14T10:11:13;3.23;;;1.60;;
2408;SDS011;8463;48.094;7.970;2024-02-14T10:13:40;1.77;;;1.37;;
2408;SDS011;8463;48.094;7.970;2024-02-14T10:16:06;2.27;;;1.80;;
2408;SDS011;8463;48.094;7.970;2024-02-14T10:18:33;2.23;;;1.33;;
2408;SDS011;8463;48.094;7.970;2024-02-14T10:20:59;2.67;;;1.20;;
2408;SDS011;8463;48.094;7.970;2024-02-14T10:23:26;2.30;;;1.63;;
2408;SDS011;8463;48.094;7.970;2024-02-14T10:25:53;1.70;;;1.23;;
2408;SDS011;8463;48.094;7.970;2024-02-14T10:28:21;1.70;;;1.10;;
2408;SDS011;8463;48.094;7.970;2024-02-14T10:30:47;1.90;;;1.17;;
2408;SDS011;8463;48.094;7.970;2024-02-14T10:33:16;1.93;;;0.90;;
2408;SDS011;8463;48.094;7.970;2024-02-14T10:35:44;1.90;;;1.03;;
2408;SDS011;8463;48.094;7.970;2024-02-14T10:38:10;2.33;;;1.53;;
2408;SDS011;8463;48.094;7.970;2024-02-14T10:40:37;3.30;;;1.00;;
2408;SDS011;8463;48.094;7.970;2024-02-14T10:43:04;0.93;;;0.80;;
2408;SDS011;8463;48.094;7.970;2024-02-14T10:45:36;1.10;;;0.80;;
2408;SDS011;8463;48.094;7.970;2024-02-14T10:48:03;1.00;;;0.63;;
2408;SDS011;8463;48.094;7.970;2024-02-14T10:50:32;1.13;;;0.80;;
2408;SDS011;8463;48.094;7.970;2024-02-14T10:53:03;1.47;;;0.70;;
2408;SDS011;8463;48.094;7.970;2024-02-14T10:55:31;0.93;;;0.70;;
2408;SDS011;8463;48.094;7.970;2024-02-14T10:57:58;0.80;;;0.70;;
2408;SDS011;8463;48.094;7.970;2024-02-14T11:00:24;3.40;;;1.40;;
2408;SDS011;8463;48.094;7.970;2024-02-14T11:02:50;1.73;;;1.00;;
2408;SDS011;8463;48.094;7.970;2024-02-14T11:05:18;1.70;;;1.13;;
2408;SDS011;8463;48.094;7.970;2024-02-14T11:07:47;1.20;;;1.00;;
2408;SDS011;8463;48.094;7.970;2024-02-14T11:10:16;1.70;;;0.70;;
2408;SDS011;8463;48.094;7.970;2024-02-14T11:12:42;2.73;;;0.90;;
2408;SDS011;8463;48.094;7.970;2024-02-14T11:15:44;2.40;;;0.90;;
2408;SDS011;8463;48.094;7.970;2024-02-14T11:18:05;1.40;;;0.93;;
2408;SDS011;8463;48.094;7.970;2024-02-14T11:20:33;2.33;;;0.80;;
2408;SDS011;8463;48.094;7.970;2024-02-14T11:23:03;1.57;;;0.90;;
2408;SDS011;8463;48.094;7.970;2024-02-14T11:25:39;1.10;;;0.73;;
2408;SDS011;8463;48.094;7.970;2024-02-14T11:30:45;2.20;;;1.10;;
2408;SDS011;8463;48.094;7.970;2024-02-14T11:33:20;1.20;;;1.10;;
2408;SDS011;8463;48.094;7.970;2024-02-14T11:35:48;0.80;;;0.80;;
2408;SDS011;8463;48.094;7.970;2024-02-14T11:38:22;1.40;;;1.30;;
2408;SDS011;8463;48.094;7.970;2024-02-14T11:40:51;1.27;;;0.87;;
2408;SDS011;8463;48.094;7.970;2024-02-14T11:43:23;1.80;;;0.77;;
2408;SDS011;8463;48.094;7.970;2024-02-14T11:45:49;1.43;;;0.90;;
2408;SDS011;8463;48.094;7.970;2024-02-14T11:48:16;1.83;;;0.80;;
2408;SDS011;8463;48.094;7.970;2024-02-14T11:50:44;0.93;;;0.60;;
2408;SDS011;8463;48.094;7.970;2024-02-14T11:53:11;1.33;;;1.03;;
2408;SDS011;8463;48.094;7.970;2024-02-14T11:55:38;1.10;;;0.90;;
2408;SDS011;8463;48.094;7.970;2024-02-14T11:58:08;3.33;;;1.20;;
2408;SDS011;8463;48.094;7.970;2024-02-14T12:00:42;1.53;;;1.27;;
2408;SDS011;8463;48.094;7.970;2024-02-14T12:03:20;0.93;;;0.90;;
2408;SDS011;8463;48.094;7.970;2024-02-14T12:05:51;1.47;;;1.17;;
2408;SDS011;8463;48.094;7.970;2024-02-14T12:08:17;1.63;;;1.37;;
2408;SDS011;8463;48.094;7.970;2024-02-14T12:10:44;2.50;;;1.07;;
2408;SDS011;8463;48.094;7.970;2024-02-14T12:13:15;1.10;;;0.90;;
2408;SDS011;8463;48.094;7.970;2024-02-14T12:15:46;1.93;;;1.00;;
2408;SDS011;8463;48.094;7.970;2024-02-14T12:18:13;1.13;;;0.97;;
2408;SDS011;8463;48.094;7.970;2024-02-14T12:20:39;1.20;;;0.93;;
2408;SDS011;8463;48.094;7.970;2024-02-14T12:23:06;1.50;;;1.13;;
2408;SDS011;8463;48.094;7.970;2024-02-14T12:25:32;1.00;;;0.80;;
2408;SDS011;8463;48.094;7.970;2024-02-14T12:27:59;1.77;;;1.00;;
2408;SDS011;8463;48.094;7.970;2024-02-14T12:30:50;1.40;;;1.03;;
2408;SDS011;8463;48.094;7.970;2024-02-14T12:33:22;1.10;;;0.90;;
2408;SDS011;8463;48.094;7.970;2024-02-14T12:35:49;2.10;;;1.00;;
2408;SDS011;8463;48.094;7.970;2024-02-14T12:38:16;1.13;;;1.00;;
2408;SDS011;8463;48.094;7.970;2024-02-14T12:40:45;1.50;;;1.13;;
2408;SDS011;8463;48.094;7.970;2024-02-14T12:43:12;1.33;;;1.10;;
2408;SDS011;8463;48.094;7.970;2024-02-14T12:45:39;1.57;;;1.20;;
2408;SDS011;8463;48.094;7.970;2024-02-14T12:48:05;1.20;;;1.10;;
2408;SDS011;8463;48.094;7.970;2024-02-14T12:50:35;1.33;;;0.90;;
2408;SDS011;8463;48.094;7.970;2024-02-14T12:53:05;1.10;;;0.90;;
2408;SDS011;8463;48.094;7.970;2024-02-14T12:55:31;1.07;;;0.97;;
2408;SDS011;8463;48.094;7.970;2024-02-14T12:57:57;1.07;;;0.90;;
2408;SDS011;8463;48.094;7.970;2024-02-14T13:00:23;1.13;;;0.90;;
2408;SDS011;8463;48.094;7.970;2024-02-14T13:02:49;1.20;;;0.90;;
2408;SDS011;8463;48.094;7.970;2024-02-14T13:05:15;1.43;;;0.90;;
2408;SDS011;8463;48.094;7.970;2024-02-14T13:07:41;2.17;;;0.83;;
2408;SDS011;8463;48.094;7.970;2024-02-14T13:10:08;1.00;;;0.70;;
2408;SDS011;8463;48.094;7.970;2024-02-14T13:12:35;1.17;;;0.80;;
2408;SDS011;8463;48.094;7.970;2024-02-14T13:15:02;2.43;;;1.10;;
2408;SDS011;8463;48.094;7.970;2024-02-14T13:17:28;1.47;;;1.00;;
2408;SDS011;8463;48.094;7.970;2024-02-14T13:19:54;1.30;;;0.60;;
2408;SDS011;8463;48.094;7.970;2024-02-14T13:22:19;1.43;;;0.90;;
2408;SDS011;8463;48.094;7.970;2024-02-14T13:24:45;1.87;;;1.10;;
2408;SDS011;8463;48.094;7.970;2024-02-14T13:27:11;1.20;;;0.87;;
2408;SDS011;8463;48.094;7.970;2024-02-14T13:29:36;1.30;;;0.87;;
2408;SDS011;8463;48.094;7.970;2024-02-14T13:32:03;1.90;;;1.10;;
2408;SDS011;8463;48.094;7.970;2024-02-14T13:34:30;1.17;;;0.77;;
2408;SDS011;8463;48.094;7.970;2024-02-14T13:36:56;2.80;;;0.83;;
2408;SDS011;8463;48.094;7.970;2024-02-14T13:39:23;1.00;;;0.90;;
2408;SDS011;8463;48.094;7.970;2024-02-14T13:41:48;1.00;;;0.90;;
2408;SDS011;8463;48.094;7.970;2024-02-14T13:44:14;3.83;;;1.20;;
2408;SDS011;8463;48.094;7.970;2024-02-14T13:46:43;1.80;;;1.07;;
2408;SDS011;8463;48.094;7.970;2024-02-14T13:49:10;0.93;;;0.87;;
2408;SDS011;8463;48.094;7.970;2024-02-14T13:51:37;2.23;;;0.87;;
2408;SDS011;8463;48.094;7.970;2024-02-14T13:54:03;2.27;;;1.13;;
2408;SDS011;8463;48.094;7.970;2024-02-14T13:56:29;1.83;;;0.77;;
2408;SDS011;8463;48.094;7.970;2024-02-14T13:58:55;0.83;;;0.83;;
2408;SDS011;8463;48.094;7.970;2024-02-14T14:01:21;1.10;;;1.00;;
2408;SDS011;8463;48.094;7.970;2024-02-14T14:03:46;0.60;;;0.57;;
2408;SDS011;8463;48.094;7.970;2024-02-14T14:06:15;0.80;;;0.60;;
2408;SDS011;8463;48.094;7.970;2024-02-14T14:08:41;1.87;;;0.80;;
2408;SDS011;8463;48.094;7.970;2024-02-14T14:11:06;0.60;;;0.53;;
2408;SDS011;8463;48.094;7.970;2024-02-14T14:13:33;1.00;;;0.50;;
2408;SDS011;8463;48.094;7.970;2024-02-14T14:15:59;0.70;;;0.70;;
2408;SDS011;8463;48.094;7.970;2024-02-14T14:18:25;3.40;;;2.40;;
2408;SDS011;8463;48.094;7.970;2024-02-14T14:20:51;1.17;;;0.77;;
2408;SDS011;8463;48.094;7.970;2024-02-14T14:23:19;0.90;;;0.80;;
2408;SDS011;8463;48.094;7.970;2024-02-14T14:25:45;1.27;;;0.60;;
2408;SDS011;8463;48.094;7.970;2024-02-14T14:28:11;1.67;;;0.73;;
2408;SDS011;8463;48.094;7.970;2024-02-14T14:30:40;1.20;;;0.70;;
2408;SDS011;8463;48.094;7.970;2024-02-14T14:33:06;1.70;;;0.70;;
2408;SDS011;8463;48.094;7.970;2024-02-14T14:35:33;0.60;;;0.60;;
2408;SDS011;8463;48.094;7.970;2024-02-14T14:37:59;1.43;;;0.57;;
2408;SDS011;8463;48.094;7.970;2024-02-14T14:40:25;1.60;;;1.20;;
2408;SDS011;8463;48.094;7.970;2024-02-14T14:42:51;3.90;;;3.20;;
2408;SDS011;8463;48.094;7.970;2024-02-14T14:45:17;1.33;;;0.97;;
2408;SDS011;8463;48.094;7.970;2024-02-14T14:47:43;0.83;;;0.80;;
2408;SDS011;8463;48.094;7.970;2024-02-14T14:50:10;2.10;;;1.63;;
2408;SDS011;8463;48.094;7.970;2024-02-14T14:52:37;3.83;;;1.47;;
2408;SDS011;8463;48.094;7.970;2024-02-14T14:55:04;1.23;;;1.03;;
2408;SDS011;8463;48.094;7.970;2024-02-14T14:57:30;1.03;;;0.80;;
2408;SDS011;8463;48.094;7.970;2024-02-14T14:59:56;1.00;;;0.80;;
2408;SDS011;8463;48.094;7.970;2024-02-14T15:02:22;1.00;;;0.80;;
2408;SDS011;8463;48.094;7.970;2024-02-14T15:04:47;1.50;;;1.00;;
2408;SDS011;8463;48.094;7.970;2024-02-14T15:07:13;1.50;;;1.10;;
2408;SDS011;8463;48.094;7.970;2024-02-14T15:09:39;0.90;;;0.77;;
2408;SDS011;8463;48.094;7.970;2024-02-14T15:12:06;1.20;;;0.60;;
2408;SDS011;8463;48.094;7.970;2024-02-14T15:14:33;2.43;;;1.07;;
2408;SDS011;8463;48.094;7.970;2024-02-14T15:16:58;1.50;;;1.20;;
2408;SDS011;8463;48.094;7.970;2024-02-14T15:19:24;1.30;;;0.97;;